createdAt,value
2022-10-02T00:00:01.186Z,1.83
2022-10-02T00:02:34.377Z,2.13
2022-10-02T00:05:06.607Z,1.58
2022-10-02T00:07:40.766Z,2.50
2022-10-02T00:10:16.440Z,2.35
2022-10-02T00:12:48.314Z,3.58
2022-10-02T00:15:25.545Z,3.03
2022-10-02T00:17:59.109Z,2.30
2022-10-02T00:20:32.958Z,2.05
2022-10-02T00:23:06.356Z,1.73
2022-10-02T00:25:38.805Z,0.98
2022-10-02T00:28:17.740Z,0.98
2022-10-02T00:30:59.110Z,0.80
2022-10-02T00:33:33.083Z,1.13
2022-10-02T00:36:11.240Z,1.00
2022-10-02T00:38:44.947Z,1.20
2022-10-02T00:41:21.133Z,1.08
2022-10-02T00:43:57.828Z,1.08
2022-10-02T00:46:40.833Z,0.95
2022-10-02T00:49:20.153Z,1.20
2022-10-02T00:51:55.884Z,1.10
2022-10-02T00:54:31.863Z,0.85
2022-10-02T00:57:09.134Z,1.20
2022-10-02T00:59:45.731Z,0.73
2022-10-02T01:02:38.568Z,1.23
2022-10-02T01:05:10.556Z,1.30
2022-10-02T01:07:43.418Z,1.17
2022-10-02T01:10:15.032Z,1.35
2022-10-02T01:12:45.698Z,1.27
2022-10-02T01:15:17.441Z,1.65
2022-10-02T01:17:50.968Z,1.35
2022-10-02T01:20:22.313Z,1.27
2022-10-02T01:22:55.998Z,2.03
2022-10-02T01:25:28.905Z,1.08
2022-10-02T01:27:59.128Z,1.45
2022-10-02T01:30:29.480Z,1.70
2022-10-02T01:33:01.249Z,1.48
2022-10-02T01:35:34.245Z,1.58
2022-10-02T01:38:06.837Z,1.20
2022-10-02T01:40:40.371Z,1.70
2022-10-02T01:43:12.425Z,1.70
2022-10-02T01:45:57.014Z,1.55
2022-10-02T01:51:27.027Z,1.67
2022-10-02T01:54:11.153Z,1.98
2022-10-02T01:56:47.776Z,1.55
2022-10-02T01:59:22.288Z,1.77
2022-10-02T02:01:56.228Z,1.80
2022-10-02T02:04:30.077Z,1.60
2022-10-02T02:07:06.256Z,1.45
2022-10-02T02:09:39.921Z,1.63
2022-10-02T02:12:17.805Z,1.70
2022-10-02T02:14:50.907Z,2.33
2022-10-02T02:17:24.146Z,2.08
2022-10-02T02:19:56.081Z,1.75
2022-10-02T02:22:28.244Z,1.73
2022-10-02T02:25:00.190Z,1.90
2022-10-02T02:27:35.014Z,1.75
2022-10-02T02:30:07.601Z,1.65
2022-10-02T02:32:41.661Z,1.52
2022-10-02T02:35:17.418Z,2.20
2022-10-02T02:37:48.634Z,2.28
2022-10-02T02:40:23.530Z,1.63
2022-10-02T02:43:01.178Z,1.88
2022-10-02T02:45:32.510Z,1.90
2022-10-02T02:48:07.633Z,1.90
2022-10-02T02:50:40.708Z,2.05
2022-10-02T02:53:16.762Z,2.33
2022-10-02T02:55:48.816Z,1.33
2022-10-02T02:58:25.411Z,1.75
2022-10-02T03:00:55.733Z,1.92
2022-10-02T03:03:26.104Z,1.73
2022-10-02T03:06:04.390Z,1.92
2022-10-02T03:08:36.447Z,2.45
2022-10-02T03:11:11.857Z,1.70
2022-10-02T03:13:58.620Z,1.98
2022-10-02T03:16:39.566Z,1.73
2022-10-02T03:19:27.757Z,1.50
2022-10-02T03:22:05.278Z,1.98
2022-10-02T03:24:38.928Z,2.03
2022-10-02T03:27:12.109Z,2.30
2022-10-02T03:29:48.682Z,2.53
2022-10-02T03:32:21.265Z,3.00
2022-10-02T03:34:51.657Z,3.47
2022-10-02T03:37:21.866Z,3.05
2022-10-02T03:39:52.989Z,2.75
2022-10-02T03:42:28.466Z,2.58
2022-10-02T03:45:01.233Z,3.03
2022-10-02T03:47:31.388Z,2.65
2022-10-02T03:50:01.538Z,3.58
2022-10-02T03:52:34.680Z,2.22
2022-10-02T03:55:06.045Z,3.55
2022-10-02T03:57:37.464Z,2.65
2022-10-02T04:00:12.860Z,2.20
2022-10-02T04:02:45.585Z,2.70
2022-10-02T04:05:22.487Z,2.55
2022-10-02T04:07:53.984Z,2.58
2022-10-02T04:10:42.152Z,2.50
2022-10-02T04:13:17.746Z,3.10
2022-10-02T04:16:09.219Z,2.67
2022-10-02T04:18:42.128Z,2.50
2022-10-02T04:21:15.972Z,2.28
2022-10-02T04:23:51.653Z,2.20
2022-10-02T04:26:24.544Z,2.60
2022-10-02T04:28:57.901Z,2.15
2022-10-02T04:31:31.286Z,2.83
2022-10-02T04:34:04.361Z,2.45
2022-10-02T04:36:43.375Z,3.17
2022-10-02T04:39:19.132Z,2.28
2022-10-02T04:41:56.561Z,2.00
2022-10-02T04:44:30.824Z,2.80
2022-10-02T04:49:43.278Z,2.15
2022-10-02T04:52:23.631Z,2.20
2022-10-02T04:55:01.221Z,2.10
2022-10-02T04:57:39.273Z,2.28
2022-10-02T05:00:11.701Z,2.25
2022-10-02T05:03:00.930Z,1.90
2022-10-02T05:05:47.570Z,2.10
2022-10-02T05:08:28.142Z,1.48
2022-10-02T05:11:03.911Z,1.80
2022-10-02T05:13:43.367Z,1.58
2022-10-02T05:16:19.686Z,1.90
2022-10-02T05:19:08.686Z,1.92
2022-10-02T05:22:07.577Z,1.88
2022-10-02T05:24:46.685Z,2.22
2022-10-02T05:27:26.586Z,2.10
2022-10-02T05:30:05.558Z,1.90
2022-10-02T05:32:51.208Z,1.98
2022-10-02T05:35:26.555Z,1.42
2022-10-02T05:38:06.808Z,1.73
2022-10-02T05:40:44.737Z,1.50
2022-10-02T05:43:16.397Z,2.03
2022-10-02T05:45:48.491Z,1.85
2022-10-02T05:48:22.293Z,2.13
2022-10-02T05:50:55.887Z,1.80
2022-10-02T05:53:34.035Z,1.80
2022-10-02T05:56:07.643Z,2.40
2022-10-02T05:58:40.084Z,1.63
2022-10-02T06:01:12.285Z,1.83
2022-10-02T06:03:45.150Z,2.03
2022-10-02T06:06:18.252Z,2.00
2022-10-02T06:08:53.678Z,2.20
2022-10-02T06:11:27.869Z,1.92
2022-10-02T06:14:01.074Z,2.10
2022-10-02T06:16:33.556Z,1.80
2022-10-02T06:19:11.382Z,1.80
2022-10-02T06:21:43.064Z,1.40
2022-10-02T06:24:20.124Z,1.65
2022-10-02T06:26:52.756Z,1.70
2022-10-02T06:29:27.372Z,1.60
2022-10-02T06:32:06.137Z,2.53
2022-10-02T06:34:36.420Z,2.08
2022-10-02T06:37:12.140Z,1.55
2022-10-02T06:40:00.568Z,1.45
2022-10-02T06:42:37.745Z,1.35
2022-10-02T06:45:12.513Z,1.40
2022-10-02T06:47:54.685Z,2.38
2022-10-02T06:50:32.561Z,1.75
2022-10-02T06:53:09.404Z,1.98
2022-10-02T06:55:49.736Z,1.88
2022-10-02T06:58:27.333Z,2.10
2022-10-02T07:01:01.507Z,1.75
2022-10-02T07:03:42.874Z,2.08
2022-10-02T07:06:20.507Z,2.03
2022-10-02T07:09:26.171Z,1.60
2022-10-02T07:12:04.240Z,1.63
2022-10-02T07:14:38.596Z,1.73
2022-10-02T07:17:22.496Z,1.35
2022-10-02T07:20:02.534Z,2.00
2022-10-02T07:22:46.416Z,1.88
2022-10-02T07:25:34.590Z,2.58
2022-10-02T07:28:15.798Z,1.98
2022-10-02T07:30:52.061Z,1.75
2022-10-02T07:33:31.089Z,2.22
2022-10-02T07:36:06.451Z,2.30
2022-10-02T07:38:50.437Z,1.55
2022-10-02T07:41:32.431Z,2.17
2022-10-02T07:44:12.692Z,1.60
2022-10-02T07:46:50.781Z,2.05
2022-10-02T07:49:28.670Z,2.25
2022-10-02T07:52:03.415Z,1.60
2022-10-02T07:54:42.735Z,1.40
2022-10-02T07:57:30.857Z,1.42
2022-10-02T08:00:07.838Z,1.55
2022-10-02T08:02:49.583Z,1.52
2022-10-02T08:05:23.421Z,2.17
2022-10-02T08:07:57.534Z,1.98
2022-10-02T08:10:29.272Z,1.40
2022-10-02T08:13:03.039Z,1.55
2022-10-02T08:15:38.607Z,0.70
2022-10-02T08:18:35.365Z,1.65
2022-10-02T08:21:14.416Z,1.63
2022-10-02T08:23:52.057Z,1.40
2022-10-02T08:26:29.771Z,1.13
2022-10-02T08:29:08.305Z,1.38
2022-10-02T08:31:41.131Z,1.55
2022-10-02T08:34:19.427Z,1.17
2022-10-02T08:37:01.039Z,1.52
2022-10-02T08:39:38.077Z,0.90
2022-10-02T08:42:30.418Z,0.75
2022-10-02T08:45:21.452Z,1.05
2022-10-02T08:48:08.636Z,1.20
2022-10-02T08:50:54.766Z,1.20
2022-10-02T08:53:45.976Z,1.10
2022-10-02T08:56:32.914Z,1.08
2022-10-02T08:59:28.517Z,1.50
2022-10-02T09:02:15.064Z,1.30
2022-10-02T09:05:07.075Z,1.17
2022-10-02T09:07:52.638Z,1.60
2022-10-02T09:10:52.561Z,1.70
2022-10-02T09:13:47.038Z,1.20
2022-10-02T09:16:21.074Z,1.52
2022-10-02T09:21:22.195Z,1.10
2022-10-02T09:24:17.280Z,1.80
2022-10-02T09:27:12.996Z,1.50
2022-10-02T09:29:58.910Z,4.78
2022-10-02T09:32:49.741Z,1.77
2022-10-02T09:35:44.751Z,4.25
2022-10-02T09:38:30.684Z,1.60
2022-10-02T09:41:32.646Z,1.60
2022-10-02T09:44:28.294Z,2.08
2022-10-02T09:47:17.014Z,1.60
2022-10-02T09:50:02.501Z,1.38
2022-10-02T09:52:48.206Z,1.60
2022-10-02T09:55:52.172Z,1.65
2022-10-02T09:58:43.885Z,1.52
2022-10-02T10:01:45.332Z,14.05
2022-10-02T10:04:47.614Z,6.22
2022-10-02T10:07:32.407Z,5.90
2022-10-02T10:10:20.585Z,22.25
2022-10-02T10:13:24.477Z,4.35
2022-10-02T10:16:36.097Z,3.85
2022-10-02T10:19:45.397Z,2.08
2022-10-02T10:22:43.083Z,2.85
2022-10-02T10:25:30.924Z,2.75
2022-10-02T10:28:33.812Z,2.78
2022-10-02T10:31:17.283Z,3.15
2022-10-02T10:34:07.734Z,2.45
2022-10-02T10:37:09.807Z,2.05
2022-10-02T10:39:54.702Z,2.67
2022-10-02T10:43:07.552Z,2.67
2022-10-02T10:45:56.111Z,3.45
2022-10-02T10:48:49.416Z,4.53
2022-10-02T10:51:30.551Z,9.43
2022-10-02T10:54:27.901Z,2.70
2022-10-02T10:57:00.141Z,8.05
2022-10-02T10:59:45.125Z,5.97
2022-10-02T11:02:31.559Z,5.65
2022-10-02T11:05:11.477Z,8.98
2022-10-02T11:07:58.189Z,12.00
2022-10-02T11:10:40.716Z,11.88
2022-10-02T11:13:25.977Z,8.60
2022-10-02T11:16:11.280Z,3.20
2022-10-02T11:18:51.766Z,10.27
2022-10-02T11:21:47.219Z,5.30
2022-10-02T11:24:53.290Z,5.38
2022-10-02T11:27:41.517Z,5.18
2022-10-02T11:30:24.309Z,2.85
2022-10-02T11:33:30.960Z,2.90
2022-10-02T11:36:19.173Z,2.47
2022-10-02T11:38:58.004Z,4.50
2022-10-02T11:41:43.801Z,2.95
2022-10-02T11:44:25.462Z,2.30
2022-10-02T11:47:24.549Z,3.45
2022-10-02T11:50:22.117Z,2.97
2022-10-02T11:53:11.243Z,2.22
2022-10-02T11:55:54.206Z,2.03
2022-10-02T11:58:37.300Z,2.40
2022-10-02T12:01:14.204Z,2.03
2022-10-02T12:03:54.479Z,3.75
2022-10-02T12:06:33.533Z,2.70
2022-10-02T12:09:08.940Z,4.70
2022-10-02T12:11:45.305Z,8.32
2022-10-02T12:14:32.253Z,2.22
2022-10-02T12:17:07.469Z,3.08
2022-10-02T12:20:07.596Z,2.55
2022-10-02T12:22:55.725Z,2.47
2022-10-02T12:25:45.373Z,5.05
2022-10-02T12:28:22.923Z,2.85
2022-10-02T12:31:00.334Z,3.47
2022-10-02T12:33:33.229Z,4.22
2022-10-02T12:36:12.425Z,8.68
2022-10-02T12:38:52.333Z,4.40
2022-10-02T12:41:34.199Z,7.30
2022-10-02T12:44:18.908Z,6.40
2022-10-02T12:47:15.077Z,6.28
2022-10-02T12:49:50.773Z,5.20
2022-10-02T12:52:39.254Z,4.30
2022-10-02T12:55:24.431Z,5.80
2022-10-02T12:58:14.474Z,16.85
2022-10-02T13:00:59.519Z,5.07
2022-10-02T13:03:47.762Z,6.68
2022-10-02T13:06:37.086Z,4.45
2022-10-02T13:09:20.664Z,6.82
2022-10-02T13:11:58.843Z,3.97
2022-10-02T13:14:35.153Z,3.63
2022-10-02T13:17:25.885Z,3.15
2022-10-02T13:20:03.496Z,2.10
2022-10-02T13:22:40.312Z,1.88
2022-10-02T13:25:25.053Z,3.95
2022-10-02T13:28:01.199Z,1.95
2022-10-02T13:30:36.460Z,0.80
2022-10-02T13:33:28.256Z,2.60
2022-10-02T13:36:21.622Z,3.67
2022-10-02T13:39:01.436Z,4.50
2022-10-02T13:41:36.131Z,3.40
2022-10-02T13:44:17.493Z,2.50
2022-10-02T13:47:08.552Z,3.90
2022-10-02T13:49:55.780Z,4.28
2022-10-02T13:52:34.486Z,3.95
2022-10-02T13:55:15.253Z,1.70
2022-10-02T13:57:54.356Z,1.00
2022-10-02T14:00:44.017Z,5.60
2022-10-02T14:03:26.742Z,3.45
2022-10-02T14:06:02.231Z,2.70
2022-10-02T14:08:54.585Z,2.85
2022-10-02T14:11:30.799Z,2.03
2022-10-02T14:14:06.083Z,3.55
2022-10-02T14:16:42.666Z,3.50
2022-10-02T14:19:35.306Z,1.90
2022-10-02T14:22:33.849Z,0.93
2022-10-02T14:25:22.890Z,1.92
2022-10-02T14:28:24.914Z,1.05
2022-10-02T14:31:00.836Z,0.68
2022-10-02T14:33:39.488Z,1.10
2022-10-02T14:36:14.000Z,1.48
2022-10-02T14:39:02.481Z,1.65
2022-10-02T14:41:52.616Z,3.63
2022-10-02T14:44:55.765Z,2.75
2022-10-02T14:47:44.492Z,18.92
2022-10-02T14:50:22.989Z,4.57
2022-10-02T14:53:01.067Z,5.35
2022-10-02T14:55:38.384Z,16.85
2022-10-02T14:58:18.823Z,2.53
2022-10-02T15:00:55.088Z,4.35
2022-10-02T15:03:31.956Z,0.93
2022-10-02T15:06:14.685Z,3.60
2022-10-02T15:08:46.402Z,1.55
2022-10-02T15:11:28.197Z,1.33
2022-10-02T15:14:04.922Z,1.30
2022-10-02T15:16:51.101Z,0.73
2022-10-02T15:19:24.408Z,2.10
2022-10-02T15:22:00.819Z,2.20
2022-10-02T15:24:32.842Z,1.92
2022-10-02T15:27:25.033Z,3.30
2022-10-02T15:30:08.185Z,3.42
2022-10-02T15:33:10.244Z,1.10
2022-10-02T15:35:54.648Z,2.15
2022-10-02T15:38:37.640Z,0.60
2022-10-02T15:41:23.001Z,0.57
2022-10-02T15:44:06.828Z,0.70
2022-10-02T15:46:40.475Z,2.53
2022-10-02T15:49:16.421Z,2.70
2022-10-02T15:52:03.269Z,0.80
2022-10-02T15:54:47.960Z,4.05
2022-10-02T15:57:30.371Z,0.82
2022-10-02T16:00:13.484Z,0.50
2022-10-02T16:02:57.793Z,0.60
2022-10-02T16:05:34.236Z,0.68
2022-10-02T16:08:12.168Z,0.73
2022-10-02T16:10:53.401Z,0.95
2022-10-02T16:13:34.318Z,0.38
2022-10-02T16:16:20.834Z,2.33
2022-10-02T16:19:00.900Z,1.30
2022-10-02T16:21:42.228Z,1.95
2022-10-02T16:24:22.670Z,0.85
2022-10-02T16:27:16.733Z,7.95
2022-10-02T16:30:05.374Z,2.10
2022-10-02T16:32:50.093Z,4.13
2022-10-02T16:35:48.474Z,2.83
2022-10-02T16:38:24.881Z,1.05
2022-10-02T16:40:59.531Z,1.95
2022-10-02T16:43:34.781Z,0.75
2022-10-02T16:46:12.575Z,1.17
2022-10-02T16:48:51.780Z,2.13
2022-10-02T16:51:32.343Z,5.15
2022-10-02T16:54:12.204Z,6.63
2022-10-02T16:56:45.909Z,9.00
2022-10-02T16:59:20.210Z,3.70
2022-10-02T17:04:48.046Z,2.42
2022-10-02T17:07:37.774Z,1.65
2022-10-02T17:10:20.365Z,1.20
2022-10-02T17:12:53.968Z,1.40
2022-10-02T17:15:26.325Z,1.70
2022-10-02T17:18:13.329Z,2.42
2022-10-02T17:20:50.742Z,1.73
2022-10-02T17:23:24.767Z,2.80
2022-10-02T17:25:59.035Z,3.20
2022-10-02T17:28:30.685Z,1.00
2022-10-02T17:31:16.465Z,2.28
2022-10-02T17:33:48.631Z,9.38
2022-10-02T17:36:32.287Z,6.15
2022-10-02T17:39:07.042Z,1.47
2022-10-02T17:41:45.034Z,1.80
2022-10-02T17:44:22.369Z,1.83
2022-10-02T17:47:03.162Z,4.47
2022-10-02T17:49:39.145Z,2.22
2022-10-02T17:52:47.739Z,1.35
2022-10-02T17:55:55.825Z,1.38
2022-10-02T17:58:30.528Z,1.40
2022-10-02T18:01:10.905Z,1.77
2022-10-02T18:03:45.909Z,1.80
2022-10-02T18:06:20.165Z,6.70
2022-10-02T18:11:30.097Z,3.20
2022-10-02T18:14:08.601Z,3.25
2022-10-02T18:16:52.429Z,4.55
2022-10-02T18:19:39.757Z,2.92
2022-10-02T18:22:45.772Z,3.88
2022-10-02T18:25:38.805Z,5.00
2022-10-02T18:28:41.876Z,4.53
2022-10-02T18:31:28.824Z,3.35
2022-10-02T18:34:48.390Z,4.90
2022-10-02T18:37:25.034Z,3.13
2022-10-02T18:40:07.326Z,2.88
2022-10-02T18:42:46.240Z,2.70
2022-10-02T18:45:32.755Z,2.15
2022-10-02T18:48:20.680Z,3.20
2022-10-02T18:51:06.435Z,2.70
2022-10-02T18:53:43.455Z,2.20
2022-10-02T18:56:14.514Z,2.08
2022-10-02T18:58:58.365Z,2.53
2022-10-02T19:01:49.167Z,2.53
2022-10-02T19:04:29.697Z,1.70
2022-10-02T19:07:08.706Z,2.60
2022-10-02T19:09:38.938Z,3.00
2022-10-02T19:12:18.777Z,2.20
2022-10-02T19:14:49.233Z,2.25
2022-10-02T19:17:27.247Z,2.53
2022-10-02T19:19:58.733Z,2.35
2022-10-02T19:22:30.343Z,2.83
2022-10-02T19:25:02.666Z,2.53
2022-10-02T19:27:36.493Z,3.20
2022-10-02T19:30:08.698Z,3.07
2022-10-02T19:32:43.882Z,2.40
2022-10-02T19:35:19.292Z,3.25
2022-10-02T19:37:51.234Z,3.33
2022-10-02T19:40:24.014Z,3.08
2022-10-02T19:43:00.834Z,2.85
2022-10-02T19:45:32.828Z,3.40
2022-10-02T19:48:08.118Z,3.20
2022-10-02T19:50:43.287Z,2.63
2022-10-02T19:53:24.493Z,3.30
2022-10-02T19:55:57.156Z,2.83
2022-10-02T19:58:33.198Z,3.50
2022-10-02T20:01:03.605Z,3.33
2022-10-02T20:03:37.906Z,3.40
2022-10-02T20:08:44.627Z,4.32
2022-10-02T20:11:21.659Z,3.30
2022-10-02T20:13:57.530Z,3.50
2022-10-02T20:16:40.757Z,3.90
2022-10-02T20:19:19.153Z,3.83
2022-10-02T20:21:52.390Z,4.40
2022-10-02T20:24:25.845Z,5.43
2022-10-02T20:26:58.642Z,5.30
2022-10-02T20:29:32.036Z,5.75
2022-10-02T20:32:04.678Z,5.47
2022-10-02T20:34:38.411Z,5.43
2022-10-02T20:37:09.923Z,6.07
2022-10-02T20:39:44.073Z,6.15
2022-10-02T20:42:19.989Z,5.28
2022-10-02T20:44:50.217Z,6.13
2022-10-02T20:47:35.528Z,6.57
2022-10-02T20:50:20.545Z,6.07
2022-10-02T20:53:05.628Z,6.00
2022-10-02T20:55:39.806Z,6.07
2022-10-02T20:58:19.965Z,6.18
2022-10-02T21:01:11.346Z,6.00
2022-10-02T21:03:52.885Z,6.38
2022-10-02T21:06:35.647Z,6.50
2022-10-02T21:09:20.999Z,5.68
2022-10-02T21:11:57.083Z,6.35
2022-10-02T21:14:53.897Z,6.30
2022-10-02T21:17:44.976Z,5.97
2022-10-02T21:20:50.106Z,6.43
2022-10-02T21:23:54.726Z,6.70
2022-10-02T21:26:33.492Z,6.57
2022-10-02T21:29:16.145Z,6.65
2022-10-02T21:32:07.793Z,6.43
2022-10-02T21:34:46.685Z,7.07
2022-10-02T21:37:26.308Z,6.70
2022-10-02T21:40:21.473Z,6.03
2022-10-02T21:43:06.711Z,5.80
2022-10-02T21:45:51.952Z,6.32
2022-10-02T21:48:52.025Z,7.90
2022-10-02T21:51:37.826Z,6.68
2022-10-02T21:54:41.969Z,6.22
2022-10-02T21:57:44.377Z,6.57
2022-10-02T22:00:16.772Z,6.45
2022-10-02T22:03:11.572Z,6.53
2022-10-02T22:06:05.385Z,7.35
2022-10-02T22:08:38.978Z,7.20
2022-10-02T22:11:14.271Z,6.60
2022-10-02T22:13:48.252Z,6.45
2022-10-02T22:16:36.688Z,7.78
2022-10-02T22:19:11.521Z,7.50
2022-10-02T22:22:00.189Z,7.32
2022-10-02T22:24:41.633Z,7.32
2022-10-02T22:27:29.696Z,7.85
2022-10-02T22:30:02.464Z,7.30
2022-10-02T22:32:58.241Z,7.70
2022-10-02T22:35:33.663Z,8.05
2022-10-02T22:38:14.231Z,7.78
2022-10-02T22:40:48.232Z,6.63
2022-10-02T22:43:26.958Z,7.53
2022-10-02T22:46:02.659Z,8.40
2022-10-02T22:48:41.974Z,8.45
2022-10-02T22:51:18.625Z,7.72
2022-10-02T22:53:52.582Z,8.93
2022-10-02T22:56:26.591Z,9.02
2022-10-02T22:59:00.812Z,8.27
2022-10-02T23:04:05.090Z,7.72
2022-10-02T23:09:12.486Z,7.45
2022-10-02T23:11:45.092Z,8.50
2022-10-02T23:14:23.932Z,9.07
2022-10-02T23:16:55.305Z,8.38
2022-10-02T23:19:33.096Z,8.85
2022-10-02T23:22:05.861Z,8.10
2022-10-02T23:24:41.606Z,8.10
2022-10-02T23:27:15.224Z,7.53
2022-10-02T23:29:49.006Z,7.57
2022-10-02T23:32:24.357Z,7.28
2022-10-02T23:35:01.436Z,7.38
2022-10-02T23:37:35.246Z,7.78
2022-10-02T23:40:09.595Z,8.07
2022-10-02T23:45:20.561Z,8.20
2022-10-02T23:47:56.659Z,8.73
2022-10-02T23:50:34.058Z,8.60
2022-10-02T23:53:11.584Z,8.27
2022-10-02T23:55:59.889Z,8.25
2022-10-02T23:58:47.557Z,8.73
